Terminal Aerodrome Forecast
Issued by NWS Cleveland, OH

Home | Current Version | Previous Version | Graphics & Text | Print | Product List | Glossary Off
Versions: 1 2 3 4 5 6 7 8 9 10 11 12 13 14 15 16 17 18

000
FTUS41 KCLE 290500
TAFERI
TAF
KERI 290528Z 2906/3006 18004KT P6SM SCT120 OVC250
     FM290800 17011KT P6SM OVC120
     FM291300 16014G20KT P6SM OVC080
     FM291500 16014G22KT P6SM VCSH OVC045
      TEMPO 2916/2918 -RASN OVC035
     FM291800 18010G18KT 1 1/2SM -SN BR OVC007
     FM300400 29010G20KT 4SM -SN BR OVC007=

USA.gov is the U.S. government's official web portal to all federal, state and local government web resources and services.